createdAt,value
2022-08-07T00:02:37.131Z,100425.64
2022-08-07T00:03:05.432Z,100429.14
2022-08-07T00:04:15.323Z,100424.11
2022-08-07T00:05:16.647Z,100429.28
2022-08-07T00:06:32.921Z,100426.97
2022-08-07T00:07:48.072Z,100431.36
2022-08-07T00:08:53.357Z,100427.60
2022-08-07T00:10:19.123Z,100430.79
2022-08-07T00:11:06.443Z,100427.47
2022-08-07T00:13:25.784Z,100424.80
2022-08-07T00:14:30.158Z,100432.91
2022-08-07T00:15:37.644Z,100425.52
2022-08-07T00:17:01.935Z,100432.80
2022-08-07T00:19:21.615Z,100433.04
2022-08-07T00:20:29.829Z,100421.45
2022-08-07T00:21:56.148Z,100431.09
2022-08-07T00:22:35.334Z,100428.58
2022-08-07T00:24:51.743Z,100427.60
2022-08-07T00:26:00.025Z,100431.53
2022-08-07T00:28:12.461Z,100435.83
2022-08-07T00:29:18.671Z,100441.59
2022-08-07T00:30:27.000Z,100438.28
2022-08-07T00:32:41.470Z,100432.73
2022-08-07T00:33:47.710Z,100443.55
2022-08-07T00:36:04.584Z,100436.09
2022-08-07T00:38:31.359Z,100432.50
2022-08-07T00:39:26.274Z,100435.95
2022-08-07T00:42:02.481Z,100432.09
2022-08-07T00:44:00.785Z,100432.00
2022-08-07T00:45:27.654Z,100435.89
2022-08-07T00:48:09.273Z,100432.97
2022-08-07T00:48:49.982Z,100434.55
2022-08-07T00:50:20.124Z,100439.69
2022-08-07T00:52:12.514Z,100431.46
2022-08-07T00:53:16.629Z,100434.89
2022-08-07T00:54:21.160Z,100436.96
2022-08-07T00:56:36.925Z,100435.48
2022-08-07T00:57:55.107Z,100431.23
2022-08-07T00:58:46.921Z,100440.52
2022-08-07T00:59:52.933Z,100437.00
2022-08-07T01:02:14.078Z,100433.24
2022-08-07T01:04:25.401Z,100437.27
2022-08-07T01:05:31.353Z,100433.95
2022-08-07T01:06:36.797Z,100438.84
2022-08-07T01:07:40.693Z,100443.68
2022-08-07T01:08:52.816Z,100442.44
2022-08-07T01:10:06.690Z,100452.47
2022-08-07T01:10:56.864Z,100448.72
2022-08-07T01:13:16.370Z,100447.58
2022-08-07T01:16:05.307Z,100449.69
2022-08-07T01:16:43.109Z,100458.15
2022-08-07T01:18:58.002Z,100456.53
2022-08-07T01:20:08.746Z,100449.11
2022-08-07T01:21:22.467Z,100447.44
2022-08-07T01:22:22.796Z,100449.31
2022-08-07T01:23:36.333Z,100452.00
2022-08-07T01:24:55.401Z,100441.96
2022-08-07T01:26:00.083Z,100449.91
2022-08-07T01:27:04.888Z,100450.31
2022-08-07T01:28:08.420Z,100448.23
2022-08-07T01:29:14.192Z,100444.48
2022-08-07T01:30:19.385Z,100443.84
2022-08-07T01:32:34.347Z,100453.11
2022-08-07T01:33:56.084Z,100446.36
2022-08-07T01:34:44.312Z,100451.59
2022-08-07T01:37:01.601Z,100449.28
2022-08-07T01:39:17.030Z,100452.41
2022-08-07T01:40:22.566Z,100452.91
2022-08-07T01:41:27.874Z,100447.67
2022-08-07T01:43:43.484Z,100454.25
2022-08-07T01:44:47.949Z,100444.75
2022-08-07T01:48:16.411Z,100454.66
2022-08-07T01:48:30.466Z,100450.36
2022-08-07T01:49:15.957Z,100452.44
2022-08-07T01:52:04.166Z,100457.51
2022-08-07T01:54:08.822Z,100452.27
2022-08-07T01:58:29.074Z,100442.16
2022-08-07T02:00:49.277Z,100443.20
2022-08-07T02:03:21.672Z,100447.15
2022-08-07T02:04:30.343Z,100449.19
2022-08-07T02:07:12.957Z,100440.05
2022-08-07T02:08:23.874Z,100446.91
2022-08-07T02:09:33.897Z,100454.42
2022-08-07T02:10:37.176Z,100449.58
2022-08-07T02:12:59.695Z,100442.35
2022-08-07T02:14:04.517Z,100447.75
2022-08-07T02:15:09.591Z,100442.31
2022-08-07T02:17:31.675Z,100444.75
2022-08-07T02:18:37.005Z,100450.36
2022-08-07T02:20:06.737Z,100454.55
2022-08-07T02:22:04.518Z,100458.89
2022-08-07T02:23:11.723Z,100452.14
2022-08-07T02:26:46.633Z,100457.23
2022-08-07T02:27:52.895Z,100456.77
2022-08-07T02:30:10.162Z,100457.27
2022-08-07T02:31:28.186Z,100451.34
2022-08-07T02:32:23.424Z,100456.57
2022-08-07T02:34:50.993Z,100453.48
2022-08-07T02:36:28.944Z,100458.85
2022-08-07T02:38:12.001Z,100454.98
2022-08-07T02:39:42.436Z,100456.40
2022-08-07T02:40:35.028Z,100456.20
2022-08-07T02:41:33.566Z,100459.52
2022-08-07T02:42:37.946Z,100454.48
2022-08-07T02:44:56.224Z,100459.98
2022-08-07T02:47:48.937Z,100457.27
2022-08-07T02:48:40.529Z,100462.45
2022-08-07T02:49:56.252Z,100461.20
2022-08-07T02:52:09.577Z,100462.70
2022-08-07T02:53:23.750Z,100460.80
2022-08-07T02:54:31.860Z,100463.05
2022-08-07T02:56:53.094Z,100464.49
2022-08-07T02:59:14.670Z,100458.81
2022-08-07T03:00:20.440Z,100462.95
2022-08-07T03:02:54.959Z,100466.41
2022-08-07T03:03:57.414Z,100467.74
2022-08-07T03:05:04.815Z,100461.47
2022-08-07T03:07:42.961Z,100469.53
2022-08-07T03:08:29.525Z,100468.66
2022-08-07T03:09:43.527Z,100467.41
2022-08-07T03:11:57.748Z,100469.83
2022-08-07T03:14:10.646Z,100469.86
2022-08-07T03:15:14.437Z,100462.07
2022-08-07T03:17:36.321Z,100472.95
2022-08-07T03:18:39.236Z,100472.25
2022-08-07T03:19:44.945Z,100469.73
2022-08-07T03:22:04.436Z,100469.56
2022-08-07T03:23:19.153Z,100471.41
2022-08-07T03:24:17.805Z,100471.81
2022-08-07T03:25:21.024Z,100472.28
2022-08-07T03:26:28.242Z,100468.75
2022-08-07T03:27:59.520Z,100474.45
2022-08-07T03:28:40.340Z,100469.27
2022-08-07T03:29:51.426Z,100466.75
2022-08-07T03:30:56.665Z,100479.95
2022-08-07T03:33:15.883Z,100471.05
2022-08-07T03:35:43.979Z,100474.19
2022-08-07T03:37:55.402Z,100463.73
2022-08-07T03:39:05.756Z,100467.06
2022-08-07T03:40:15.533Z,100468.52
2022-08-07T03:41:16.479Z,100477.30
2022-08-07T03:42:20.830Z,100479.18
2022-08-07T03:44:38.978Z,100478.81
2022-08-07T03:47:10.971Z,100470.66
2022-08-07T03:48:01.796Z,100488.66
2022-08-07T03:49:07.935Z,100470.45
2022-08-07T03:51:30.701Z,100480.36
2022-08-07T03:52:34.699Z,100478.44
2022-08-07T03:54:05.950Z,100480.11
2022-08-07T03:54:54.305Z,100483.47
2022-08-07T03:55:57.836Z,100478.48
2022-08-07T03:57:03.806Z,100478.06
2022-08-07T03:59:15.687Z,100478.48
2022-08-07T04:00:21.115Z,100477.02
2022-08-07T04:02:41.142Z,100476.38
2022-08-07T04:03:53.662Z,100478.48
2022-08-07T04:04:50.969Z,100479.11
2022-08-07T04:05:58.753Z,100479.74
2022-08-07T04:07:00.354Z,100479.32
2022-08-07T04:09:19.423Z,100478.02
2022-08-07T04:12:24.712Z,100478.02
2022-08-07T04:14:10.705Z,100480.72
2022-08-07T04:14:59.392Z,100481.16
2022-08-07T04:16:04.344Z,100484.09
2022-08-07T04:17:20.498Z,100481.98
2022-08-07T04:19:51.161Z,100488.02
2022-08-07T04:21:59.371Z,100486.52
2022-08-07T04:23:01.861Z,100482.97
2022-08-07T04:24:05.744Z,100491.34
2022-08-07T04:26:21.829Z,100480.76
2022-08-07T04:27:25.691Z,100483.98
2022-08-07T04:28:28.659Z,100485.19
2022-08-07T04:29:48.955Z,100481.37
2022-08-07T04:32:03.345Z,100483.14
2022-08-07T04:32:58.552Z,100478.15
2022-08-07T04:34:02.045Z,100475.60
2022-08-07T04:36:22.745Z,100484.50
2022-08-07T04:37:24.989Z,100486.22
2022-08-07T04:38:30.370Z,100491.86
2022-08-07T04:39:35.581Z,100482.56
2022-08-07T04:41:53.368Z,100486.08
2022-08-07T04:43:01.334Z,100479.83
2022-08-07T04:44:12.292Z,100485.02
2022-08-07T04:46:29.405Z,100476.67
2022-08-07T04:47:58.856Z,100483.48
2022-08-07T04:49:17.701Z,100482.37
2022-08-07T04:52:00.526Z,100490.16
2022-08-07T04:53:16.427Z,100497.36
2022-08-07T04:54:19.200Z,100493.89
2022-08-07T04:58:14.866Z,100503.59
2022-08-07T05:02:21.580Z,100504.13
2022-08-07T05:03:59.620Z,100503.14
2022-08-07T05:06:19.669Z,100507.14
2022-08-07T05:09:01.369Z,100508.20
2022-08-07T05:11:24.276Z,100517.48
2022-08-07T05:15:23.588Z,100514.23
2022-08-07T05:17:52.503Z,100514.38
2022-08-07T05:22:00.316Z,100516.81
2022-08-07T05:22:36.633Z,100514.16
2022-08-07T05:25:00.423Z,100518.02
2022-08-07T05:26:25.846Z,100515.36
2022-08-07T05:28:03.271Z,100515.36
2022-08-07T05:28:50.113Z,100525.77
2022-08-07T05:29:53.758Z,100518.53
2022-08-07T05:30:59.785Z,100520.58
2022-08-07T05:32:07.312Z,100522.25
2022-08-07T05:33:13.410Z,100519.88
2022-08-07T05:34:26.296Z,100511.44
2022-08-07T05:35:33.578Z,100525.50
2022-08-07T05:36:43.852Z,100523.00
2022-08-07T05:38:08.882Z,100521.09
2022-08-07T05:39:09.027Z,100529.55
2022-08-07T05:40:16.464Z,100519.47
2022-08-07T05:41:14.549Z,100524.48
2022-08-07T05:42:17.903Z,100524.38
2022-08-07T05:43:49.994Z,100524.05
2022-08-07T05:45:47.325Z,100524.83
2022-08-07T05:48:03.615Z,100517.97
2022-08-07T05:50:21.990Z,100523.47
2022-08-07T05:54:12.475Z,100520.24
2022-08-07T05:56:19.963Z,100519.73
2022-08-07T05:57:30.168Z,100527.01
2022-08-07T05:58:36.584Z,100517.38
2022-08-07T05:59:57.939Z,100508.42
2022-08-07T06:02:04.333Z,100520.20
2022-08-07T06:03:10.353Z,100514.25
2022-08-07T06:05:31.357Z,100520.30
2022-08-07T06:06:35.756Z,100519.13
2022-08-07T06:08:14.918Z,100521.25
2022-08-07T06:10:05.300Z,100521.36
2022-08-07T06:12:07.451Z,100521.45
2022-08-07T06:13:13.698Z,100524.59
2022-08-07T06:14:21.245Z,100526.36
2022-08-07T06:16:34.257Z,100519.91
2022-08-07T06:17:41.156Z,100519.67
2022-08-07T06:18:51.759Z,100522.27
2022-08-07T06:20:04.293Z,100523.69
2022-08-07T06:22:15.331Z,100524.01
2022-08-07T06:22:15.779Z,100521.91
2022-08-07T06:24:37.550Z,100522.34
2022-08-07T06:24:38.061Z,100520.17
2022-08-07T06:26:52.899Z,100525.95
2022-08-07T06:28:04.573Z,100528.11
2022-08-07T06:29:08.328Z,100521.28
2022-08-07T06:30:31.970Z,100524.87
2022-08-07T06:31:19.095Z,100521.03
2022-08-07T06:32:23.628Z,100528.78
2022-08-07T06:35:00.342Z,100529.83
2022-08-07T06:36:12.918Z,100525.46
2022-08-07T06:37:12.311Z,100532.95
2022-08-07T06:38:20.210Z,100533.22
2022-08-07T06:40:39.556Z,100519.20
2022-08-07T06:43:21.497Z,100519.13
2022-08-07T06:46:03.704Z,100524.63
2022-08-07T06:47:11.990Z,100520.02
2022-08-07T06:48:13.620Z,100520.86
2022-08-07T06:49:19.141Z,100520.28
2022-08-07T06:50:26.884Z,100522.71
2022-08-07T06:51:34.201Z,100517.78
2022-08-07T06:55:28.187Z,100512.05
2022-08-07T06:55:33.327Z,100516.33
2022-08-07T06:56:15.193Z,100514.92
2022-08-07T06:57:14.467Z,100513.33
2022-08-07T06:58:21.627Z,100507.63
2022-08-07T07:00:43.426Z,100512.92
2022-08-07T07:01:50.974Z,100512.92
2022-08-07T07:02:57.527Z,100513.59
2022-08-07T07:04:28.449Z,100510.86
2022-08-07T07:06:26.370Z,100510.44
2022-08-07T07:08:46.594Z,100512.72
2022-08-07T07:09:51.125Z,100515.60
2022-08-07T07:12:18.062Z,100521.05
2022-08-07T07:15:03.731Z,100520.58
2022-08-07T07:19:11.225Z,100519.88
2022-08-07T07:22:04.705Z,100521.55
2022-08-07T07:24:08.042Z,100519.58
2022-08-07T07:24:09.134Z,100525.53
2022-08-07T07:24:56.856Z,100530.96
2022-08-07T07:27:12.789Z,100531.52
2022-08-07T07:30:09.294Z,100529.52
2022-08-07T07:32:43.382Z,100530.69
2022-08-07T07:33:56.984Z,100529.52
2022-08-07T07:35:00.412Z,100525.13
2022-08-07T07:37:49.542Z,100535.52
2022-08-07T07:39:52.565Z,100534.73
2022-08-07T07:42:13.950Z,100532.23
2022-08-07T07:44:32.806Z,100535.34
2022-08-07T07:46:36.835Z,100535.83
2022-08-07T07:47:58.213Z,100529.86
2022-08-07T07:50:34.082Z,100538.36
2022-08-07T07:55:22.981Z,100537.88
2022-08-07T07:57:52.103Z,100530.96
2022-08-07T08:00:02.693Z,100529.89
2022-08-07T08:04:09.743Z,100529.52
2022-08-07T08:04:57.865Z,100532.25
2022-08-07T08:07:19.979Z,100533.45
2022-08-07T08:08:35.037Z,100537.03
2022-08-07T08:09:30.788Z,100526.02
2022-08-07T08:12:02.102Z,100524.45
2022-08-07T08:13:02.927Z,100531.91
2022-08-07T08:14:06.481Z,100528.33
2022-08-07T08:16:36.020Z,100517.03
2022-08-07T08:18:56.151Z,100523.95
2022-08-07T08:21:22.076Z,100519.84
2022-08-07T08:25:25.095Z,100517.59
2022-08-07T08:27:33.635Z,100520.07
2022-08-07T08:29:56.054Z,100522.28
2022-08-07T08:32:24.945Z,100510.67
2022-08-07T08:33:26.394Z,100518.41
2022-08-07T08:34:33.197Z,100514.55
2022-08-07T08:36:57.699Z,100509.03
2022-08-07T08:38:03.610Z,100515.95
2022-08-07T08:39:06.964Z,100514.00
2022-08-07T08:41:57.573Z,100504.11
2022-08-07T08:44:41.295Z,100512.83
2022-08-07T08:47:27.637Z,100504.59
2022-08-07T08:48:53.008Z,100505.73
2022-08-07T08:50:05.602Z,100501.86
2022-08-07T08:52:32.278Z,100504.73
2022-08-07T08:57:59.546Z,100505.68
2022-08-07T08:59:27.833Z,100508.74
2022-08-07T09:02:04.319Z,100510.03
2022-08-07T09:05:02.187Z,100496.89
2022-08-07T09:08:11.812Z,100488.84
2022-08-07T09:09:36.754Z,100489.83
2022-08-07T09:12:20.027Z,100494.06
2022-08-07T09:16:35.351Z,100484.34
2022-08-07T09:17:59.622Z,100495.75
2022-08-07T09:18:59.477Z,100497.38
2022-08-07T09:24:28.450Z,100481.27
2022-08-07T09:24:30.793Z,100479.31
2022-08-07T09:28:01.315Z,100466.80
2022-08-07T09:30:06.307Z,100477.87
2022-08-07T09:32:41.760Z,100473.84
2022-08-07T09:36:04.047Z,100461.14
2022-08-07T09:38:10.552Z,100474.34
2022-08-07T09:40:55.073Z,100481.27
2022-08-07T09:44:58.721Z,100487.31
2022-08-07T09:47:42.659Z,100488.98
2022-08-07T09:52:34.457Z,100476.64
2022-08-07T09:53:40.826Z,100480.16
2022-08-07T09:56:34.055Z,100475.93
2022-08-07T09:59:46.739Z,100484.89
2022-08-07T10:01:00.557Z,100484.25
2022-08-07T10:02:33.423Z,100455.70
2022-08-07T10:05:59.050Z,100452.43
2022-08-07T10:08:26.844Z,100462.30
2022-08-07T10:10:00.808Z,100466.80
2022-08-07T10:12:00.099Z,100467.70
2022-08-07T10:14:11.715Z,100485.02
2022-08-07T10:15:25.001Z,100480.91
2022-08-07T10:16:49.415Z,100487.00
2022-08-07T10:19:17.964Z,100483.70
2022-08-07T10:22:18.377Z,100496.91
2022-08-07T10:24:04.843Z,100499.98
2022-08-07T10:25:06.697Z,100503.74
2022-08-07T10:34:45.269Z,100505.84
2022-08-07T10:36:12.599Z,100497.02
2022-08-07T10:37:48.125Z,100507.48
2022-08-07T10:40:08.927Z,100503.12
2022-08-07T10:43:01.094Z,100488.94
2022-08-07T10:45:44.626Z,100477.81
2022-08-07T10:48:34.635Z,100479.70
2022-08-07T10:49:51.202Z,100459.75
2022-08-07T10:52:14.040Z,100450.05
2022-08-07T10:56:31.907Z,100449.73
2022-08-07T10:59:21.201Z,100449.03
2022-08-07T11:02:05.458Z,100452.78
2022-08-07T11:03:18.744Z,100450.23
2022-08-07T11:04:43.635Z,100450.76
2022-08-07T11:07:59.327Z,100454.95
2022-08-07T11:09:11.133Z,100455.64
2022-08-07T11:11:51.889Z,100448.17
2022-08-07T11:14:44.700Z,100448.62
2022-08-07T11:17:45.068Z,100440.89
2022-08-07T11:18:54.045Z,100439.84
2022-08-07T11:20:03.359Z,100444.89
2022-08-07T11:24:25.624Z,100446.87
2022-08-07T11:29:42.818Z,100440.50
2022-08-07T11:32:43.479Z,100443.40
2022-08-07T11:35:11.260Z,100445.98
2022-08-07T11:37:58.255Z,100442.64
2022-08-07T11:39:19.502Z,100440.30
2022-08-07T11:42:18.730Z,100443.15
2022-08-07T11:43:54.449Z,100446.38
2022-08-07T11:46:38.056Z,100443.48
2022-08-07T11:49:51.580Z,100439.42
2022-08-07T11:54:00.882Z,100446.20
2022-08-07T12:02:30.322Z,100456.12
2022-08-07T12:05:28.753Z,100444.34
2022-08-07T12:08:25.910Z,100442.14
2022-08-07T12:12:17.712Z,100443.04
2022-08-07T12:14:53.761Z,100441.75
2022-08-07T12:16:06.643Z,100436.23
2022-08-07T12:18:37.246Z,100439.25
2022-08-07T12:20:04.906Z,100442.55
2022-08-07T12:22:39.415Z,100433.75
2022-08-07T12:24:52.555Z,100436.50
2022-08-07T12:27:18.012Z,100440.30
2022-08-07T12:28:39.389Z,100447.25
2022-08-07T12:31:17.101Z,100451.73
2022-08-07T12:34:01.830Z,100442.60
2022-08-07T12:35:08.335Z,100450.34
2022-08-07T12:38:11.387Z,100434.74
2022-08-07T12:39:50.895Z,100429.08
2022-08-07T12:40:56.121Z,100420.55
2022-08-07T12:42:02.619Z,100425.12
2022-08-07T12:44:23.135Z,100426.36
2022-08-07T12:47:27.145Z,100443.09
2022-08-07T12:50:39.592Z,100452.72
2022-08-07T12:51:46.768Z,100442.32
2022-08-07T12:58:53.253Z,100460.23
2022-08-07T13:01:32.627Z,100466.85
2022-08-07T13:04:32.609Z,100470.94
2022-08-07T13:06:03.676Z,100468.83
2022-08-07T13:10:21.572Z,100458.38
2022-08-07T13:15:32.487Z,100448.09
2022-08-07T13:18:25.833Z,100453.33
2022-08-07T13:19:50.788Z,100456.98
2022-08-07T13:22:27.570Z,100464.28
2022-08-07T13:24:55.335Z,100470.95
2022-08-07T13:28:05.570Z,100476.70
2022-08-07T13:30:03.697Z,100472.81
2022-08-07T13:32:37.638Z,100474.87
2022-08-07T13:35:21.349Z,100479.95
2022-08-07T13:37:58.771Z,100488.72
2022-08-07T13:43:11.782Z,100497.95
2022-08-07T13:46:16.373Z,100495.19
2022-08-07T13:52:43.235Z,100506.55
2022-08-07T13:55:21.431Z,100521.19
2022-08-07T13:56:36.217Z,100519.27
2022-08-07T13:58:56.157Z,100532.52
2022-08-07T14:01:20.385Z,100528.94
2022-08-07T14:04:07.284Z,100545.30
2022-08-07T14:06:17.902Z,100550.72
2022-08-07T14:08:53.658Z,100550.95
2022-08-07T14:10:02.273Z,100547.78
2022-08-07T14:11:15.314Z,100568.98
2022-08-07T14:13:34.693Z,100561.44
2022-08-07T14:16:05.426Z,100562.11
2022-08-07T14:20:41.712Z,100572.91
2022-08-07T14:22:34.802Z,100576.91
2022-08-07T14:24:00.516Z,100580.05
2022-08-07T14:24:58.891Z,100588.49
2022-08-07T14:28:57.265Z,100588.99
2022-08-07T14:30:06.320Z,100591.49
2022-08-07T14:32:13.825Z,100602.00
2022-08-07T14:33:22.208Z,100584.59
2022-08-07T14:34:30.130Z,100582.78
2022-08-07T14:36:55.864Z,100588.52
2022-08-07T14:38:03.033Z,100582.84
2022-08-07T14:39:03.990Z,100596.58
2022-08-07T14:47:48.158Z,100589.48
2022-08-07T14:48:54.930Z,100597.48
2022-08-07T14:49:59.354Z,100598.68
2022-08-07T15:12:35.549Z,100626.80
2022-08-07T15:16:55.002Z,100636.82
2022-08-07T15:19:12.291Z,100636.82
2022-08-07T15:21:45.166Z,100636.34
2022-08-07T15:28:31.055Z,100649.12
2022-08-07T15:32:01.275Z,100641.95
2022-08-07T15:39:04.960Z,100661.41
2022-08-07T15:40:32.070Z,100666.55
2022-08-07T15:42:43.261Z,100667.62
2022-08-07T15:44:08.508Z,100671.19
2022-08-07T15:54:41.709Z,100720.98
2022-08-07T15:57:01.210Z,100725.87
2022-08-07T15:59:38.929Z,100733.19
2022-08-07T16:02:01.866Z,100728.55
2022-08-07T16:03:02.376Z,100724.34
2022-08-07T16:04:14.540Z,100724.13
2022-08-07T16:05:18.766Z,100718.64
2022-08-07T16:09:22.820Z,100711.41
2022-08-07T16:10:39.667Z,100709.16
2022-08-07T16:15:55.612Z,100693.09
2022-08-07T16:18:49.390Z,100686.53
2022-08-07T16:22:02.359Z,100690.59
2022-08-07T16:23:13.681Z,100695.86
2022-08-07T16:25:57.037Z,100687.23
2022-08-07T16:30:06.124Z,100698.45
2022-08-07T16:30:31.150Z,100696.32
2022-08-07T16:31:50.755Z,100697.61
2022-08-07T16:34:33.877Z,100700.64
2022-08-07T16:38:06.070Z,100708.21
2022-08-07T16:40:28.115Z,100709.17
2022-08-07T16:41:41.492Z,100713.12
2022-08-07T16:46:21.213Z,100717.15
2022-08-07T16:50:28.932Z,100720.34
2022-08-07T16:55:52.733Z,100733.81
2022-08-07T17:00:06.164Z,100729.39
2022-08-07T17:03:05.829Z,100730.59
2022-08-07T17:06:28.357Z,100735.45
2022-08-07T17:13:17.123Z,100733.30
2022-08-07T17:14:54.900Z,100738.35
2022-08-07T17:17:46.470Z,100736.92
2022-08-07T17:19:03.519Z,100734.25
2022-08-07T17:21:51.876Z,100751.02
2022-08-07T17:24:27.044Z,100749.91
2022-08-07T17:25:52.578Z,100741.09
2022-08-07T17:30:16.122Z,100753.02
2022-08-07T17:34:08.465Z,100755.87
2022-08-07T17:34:34.490Z,100755.16
2022-08-07T17:35:55.247Z,100758.73
2022-08-07T17:42:01.495Z,100761.77
2022-08-07T17:44:14.738Z,100754.90
2022-08-07T17:49:59.736Z,100774.26
2022-08-07T17:58:05.109Z,100758.44
2022-08-07T18:00:48.775Z,100761.77
2022-08-07T18:04:03.743Z,100762.73
2022-08-07T18:07:38.282Z,100757.58
2022-08-07T18:12:17.844Z,100770.72
2022-08-07T18:14:37.441Z,100762.37
2022-08-07T18:16:04.880Z,100760.40
2022-08-07T18:18:45.477Z,100758.77
2022-08-07T18:21:53.561Z,100756.62
2022-08-07T18:24:07.197Z,100751.80
2022-08-07T18:27:04.775Z,100752.56
2022-08-07T18:31:56.229Z,100750.41
2022-08-07T18:33:38.337Z,100758.84
2022-08-07T18:35:07.983Z,100751.77
2022-08-07T18:38:55.757Z,100760.38
2022-08-07T18:41:44.951Z,100758.38
2022-08-07T18:45:39.982Z,100765.21
2022-08-07T18:46:25.456Z,100765.55
2022-08-07T18:51:08.953Z,100763.39
2022-08-07T18:54:27.967Z,100772.13
2022-08-07T18:55:43.328Z,100769.29
2022-08-07T18:57:27.352Z,100761.64
2022-08-07T19:00:32.026Z,100768.78
2022-08-07T19:02:19.742Z,100766.30
2022-08-07T19:02:53.773Z,100762.09
2022-08-07T19:06:03.355Z,100768.66
2022-08-07T19:09:59.076Z,100775.61
2022-08-07T19:11:36.152Z,100773.80
2022-08-07T19:13:50.315Z,100783.02
2022-08-07T19:17:05.678Z,100781.91
2022-08-07T19:19:47.689Z,100773.33
2022-08-07T19:22:47.910Z,100793.03
2022-08-07T19:26:22.929Z,100783.83
2022-08-07T19:26:29.299Z,100781.69
2022-08-07T19:28:58.376Z,100779.92
2022-08-07T19:31:05.965Z,100778.09
2022-08-07T19:35:23.891Z,100783.94
2022-08-07T19:39:09.887Z,100783.59
2022-08-07T19:42:49.749Z,100783.98
2022-08-07T19:46:04.952Z,100778.34
2022-08-07T19:50:44.393Z,100785.31
2022-08-07T19:51:50.822Z,100788.61
2022-08-07T19:52:59.266Z,100782.27
2022-08-07T19:55:25.741Z,100781.09
2022-08-07T19:58:13.104Z,100779.83
2022-08-07T20:02:21.356Z,100782.59
2022-08-07T20:04:31.661Z,100779.96
2022-08-07T20:10:35.583Z,100781.64
2022-08-07T20:12:49.157Z,100773.92
2022-08-07T20:15:19.042Z,100779.30
2022-08-07T20:19:02.723Z,100774.77
2022-08-07T20:21:47.244Z,100778.57
2022-08-07T20:24:38.963Z,100785.89
2022-08-07T20:27:04.651Z,100788.28
2022-08-07T20:31:01.190Z,100787.32
2022-08-07T20:33:44.398Z,100791.20
2022-08-07T20:36:09.499Z,100788.17
2022-08-07T20:40:02.920Z,100789.35
2022-08-07T20:42:15.083Z,100791.66
2022-08-07T20:43:21.616Z,100787.70
2022-08-07T20:46:26.655Z,100788.38
2022-08-07T20:48:29.787Z,100790.54
2022-08-07T20:49:59.636Z,100792.16
2022-08-07T20:50:33.728Z,100783.16
2022-08-07T20:52:51.896Z,100785.23
2022-08-07T20:55:09.483Z,100777.33
2022-08-07T20:56:20.120Z,100779.13
2022-08-07T20:57:29.015Z,100773.97
2022-08-07T20:58:36.448Z,100769.95
2022-08-07T21:02:27.802Z,100780.54
2022-08-07T21:03:30.637Z,100778.91
2022-08-07T21:04:36.221Z,100779.45
2022-08-07T21:05:55.912Z,100775.27
2022-08-07T21:08:13.514Z,100772.69
2022-08-07T21:09:19.932Z,100779.36
2022-08-07T21:10:31.409Z,100778.91
2022-08-07T21:13:16.744Z,100781.88
2022-08-07T21:14:33.855Z,100779.13
2022-08-07T21:15:58.754Z,100782.71
2022-08-07T21:18:17.259Z,100780.55
2022-08-07T21:20:30.414Z,100777.27
2022-08-07T21:22:51.191Z,100768.98
2022-08-07T21:26:52.711Z,100767.81
2022-08-07T21:28:06.294Z,100775.72
2022-08-07T21:30:30.939Z,100773.14
2022-08-07T21:33:14.534Z,100778.91
2022-08-07T21:34:34.483Z,100766.82
2022-08-07T21:37:57.541Z,100773.20
2022-08-07T21:38:39.165Z,100766.95
2022-08-07T21:41:52.150Z,100770.48
2022-08-07T21:44:33.348Z,100767.14
2022-08-07T21:51:51.033Z,100769.66
2022-08-07T21:54:20.992Z,100770.23
2022-08-07T21:57:31.595Z,100775.80
2022-08-07T21:58:45.895Z,100767.41
2022-08-07T22:02:06.979Z,100765.02
2022-08-07T22:04:10.772Z,100769.61
2022-08-07T22:06:54.013Z,100773.19
2022-08-07T22:10:37.534Z,100771.46
2022-08-07T22:13:03.385Z,100774.02
2022-08-07T22:20:02.675Z,100770.62
2022-08-07T22:21:21.209Z,100768.65
2022-08-07T22:23:48.972Z,100771.63
2022-08-07T22:24:56.269Z,100769.56
2022-08-07T22:28:20.063Z,100770.95
2022-08-07T22:30:18.869Z,100775.06
2022-08-07T22:33:13.737Z,100773.72
2022-08-07T22:35:49.902Z,100777.13
2022-08-07T22:39:53.532Z,100783.55
2022-08-07T22:42:19.043Z,100778.94
2022-08-07T22:44:59.519Z,100788.84
2022-08-07T22:49:54.462Z,100794.31
2022-08-07T22:51:08.583Z,100791.25
2022-08-07T22:54:15.066Z,100800.47
2022-08-07T22:57:30.517Z,100795.44
2022-08-07T23:00:28.777Z,100803.30
2022-08-07T23:01:58.937Z,100800.78
2022-08-07T23:04:57.023Z,100807.37
2022-08-07T23:07:41.324Z,100797.81
2022-08-07T23:10:48.069Z,100805.63
2022-08-07T23:14:09.641Z,100800.24
2022-08-07T23:14:57.146Z,100803.11
2022-08-07T23:18:08.590Z,100809.69
2022-08-07T23:19:27.917Z,100804.34
2022-08-07T23:21:11.081Z,100800.47
2022-08-07T23:22:39.557Z,100800.24
2022-08-07T23:25:10.294Z,100804.20
2022-08-07T23:26:23.339Z,100805.56
2022-08-07T23:28:22.400Z,100811.49
2022-08-07T23:31:06.556Z,100803.05
2022-08-07T23:34:35.913Z,100803.16
2022-08-07T23:34:56.327Z,100805.97
2022-08-07T23:38:08.091Z,100805.88
2022-08-07T23:39:23.244Z,100813.84
2022-08-07T23:42:05.747Z,100819.71
2022-08-07T23:43:22.521Z,100819.61
2022-08-07T23:46:23.501Z,100827.16
2022-08-07T23:49:05.991Z,100821.67
2022-08-07T23:50:26.974Z,100824.92
2022-08-07T23:53:17.042Z,100826.04
2022-08-07T23:54:19.505Z,100832.61
2022-08-07T23:55:53.388Z,100826.97
2022-08-07T23:58:21.412Z,100823.41
